sensor_id;sensor_type;location;lat;lon;timestamp;temperature;humidity
67817;DHT22;54614;47.576;7.524;2022-11-20T00:01:30;25.00;52.20
67817;DHT22;54614;47.576;7.524;2022-11-20T00:03:57;25.00;52.00
67817;DHT22;54614;47.576;7.524;2022-11-20T00:06:25;25.00;52.20
67817;DHT22;54614;47.576;7.524;2022-11-20T00:08:55;25.00;52.20
67817;DHT22;54614;47.576;7.524;2022-11-20T00:11:24;25.00;52.10
67817;DHT22;54614;47.576;7.524;2022-11-20T00:13:54;25.00;52.10
67817;DHT22;54614;47.576;7.524;2022-11-20T00:16:24;25.00;52.20
67817;DHT22;54614;47.576;7.524;2022-11-20T00:18:52;25.00;52.20
67817;DHT22;54614;47.576;7.524;2022-11-20T00:21:20;25.00;52.00
67817;DHT22;54614;47.576;7.524;2022-11-20T00:23:47;25.00;52.00
67817;DHT22;54614;47.576;7.524;2022-11-20T00:26:16;25.00;52.00
67817;DHT22;54614;47.576;7.524;2022-11-20T00:28:44;25.00;52.10
67817;DHT22;54614;47.576;7.524;2022-11-20T00:31:18;25.00;52.10
67817;DHT22;54614;47.576;7.524;2022-11-20T00:33:44;25.00;52.10
67817;DHT22;54614;47.576;7.524;2022-11-20T00:36:13;25.00;52.10
67817;DHT22;54614;47.576;7.524;2022-11-20T00:38:42;25.00;52.20
67817;DHT22;54614;47.576;7.524;2022-11-20T00:41:11;25.00;52.20
67817;DHT22;54614;47.576;7.524;2022-11-20T00:43:39;25.00;52.00
67817;DHT22;54614;47.576;7.524;2022-11-20T00:48:38;25.00;52.10
67817;DHT22;54614;47.576;7.524;2022-11-20T00:51:04;25.00;52.00
67817;DHT22;54614;47.576;7.524;2022-11-20T00:53:30;24.90;52.10
67817;DHT22;54614;47.576;7.524;2022-11-20T00:56:00;24.90;52.10
67817;DHT22;54614;47.576;7.524;2022-11-20T00:58:34;24.90;52.30
67817;DHT22;54614;47.576;7.524;2022-11-20T01:01:13;24.90;52.20
67817;DHT22;54614;47.576;7.524;2022-11-20T01:03:50;24.90;52.20
67817;DHT22;54614;47.576;7.524;2022-11-20T01:06:34;24.90;52.20
67817;DHT22;54614;47.576;7.524;2022-11-20T01:09:05;24.90;52.20
67817;DHT22;54614;47.576;7.524;2022-11-20T01:11:42;24.90;52.10
67817;DHT22;54614;47.576;7.524;2022-11-20T01:14:13;24.90;52.10
67817;DHT22;54614;47.576;7.524;2022-11-20T01:16:44;24.90;52.10
67817;DHT22;54614;47.576;7.524;2022-11-20T01:19:19;24.90;52.00
67817;DHT22;54614;47.576;7.524;2022-11-20T01:21:49;24.90;52.00
67817;DHT22;54614;47.576;7.524;2022-11-20T01:24:19;24.90;52.00
67817;DHT22;54614;47.576;7.524;2022-11-20T01:26:48;24.90;52.10
67817;DHT22;54614;47.576;7.524;2022-11-20T01:29:20;24.90;52.00
67817;DHT22;54614;47.576;7.524;2022-11-20T01:31:48;24.90;52.70
67817;DHT22;54614;47.576;7.524;2022-11-20T01:34:17;24.80;52.00
67817;DHT22;54614;47.576;7.524;2022-11-20T01:36:45;24.80;52.00
67817;DHT22;54614;47.576;7.524;2022-11-20T01:39:20;24.80;52.10
67817;DHT22;54614;47.576;7.524;2022-11-20T01:41:49;24.80;52.00
67817;DHT22;54614;47.576;7.524;2022-11-20T01:44:58;24.80;52.10
67817;DHT22;54614;47.576;7.524;2022-11-20T01:47:27;24.80;52.30
67817;DHT22;54614;47.576;7.524;2022-11-20T01:50:09;24.80;52.20
67817;DHT22;54614;47.576;7.524;2022-11-20T01:52:44;24.80;52.20
67817;DHT22;54614;47.576;7.524;2022-11-20T01:55:19;24.80;52.30
67817;DHT22;54614;47.576;7.524;2022-11-20T01:57:50;24.80;52.20
67817;DHT22;54614;47.576;7.524;2022-11-20T02:00:18;24.80;52.20
67817;DHT22;54614;47.576;7.524;2022-11-20T02:02:51;24.80;52.20
67817;DHT22;54614;47.576;7.524;2022-11-20T02:05:32;24.80;52.20
67817;DHT22;54614;47.576;7.524;2022-11-20T02:08:07;24.80;52.20
67817;DHT22;54614;47.576;7.524;2022-11-20T02:10:33;24.80;52.30
67817;DHT22;54614;47.576;7.524;2022-11-20T02:13:00;24.80;52.30
67817;DHT22;54614;47.576;7.524;2022-11-20T02:15:45;24.80;52.30
67817;DHT22;54614;47.576;7.524;2022-11-20T02:18:14;24.80;52.30
67817;DHT22;54614;47.576;7.524;2022-11-20T02:20:44;24.80;52.10
67817;DHT22;54614;47.576;7.524;2022-11-20T02:23:20;24.80;52.10
67817;DHT22;54614;47.576;7.524;2022-11-20T02:25:49;24.80;52.10
67817;DHT22;54614;47.576;7.524;2022-11-20T02:28:18;24.80;52.10
67817;DHT22;54614;47.576;7.524;2022-11-20T02:30:44;24.80;52.00
67817;DHT22;54614;47.576;7.524;2022-11-20T02:33:10;24.80;52.10
67817;DHT22;54614;47.576;7.524;2022-11-20T02:35:38;24.80;52.10
67817;DHT22;54614;47.576;7.524;2022-11-20T02:38:06;24.80;52.20
67817;DHT22;54614;47.576;7.524;2022-11-20T02:40:32;24.80;52.20
67817;DHT22;54614;47.576;7.524;2022-11-20T02:42:58;24.80;52.10
67817;DHT22;54614;47.576;7.524;2022-11-20T02:45:24;24.70;52.20
67817;DHT22;54614;47.576;7.524;2022-11-20T02:47:51;24.70;52.00
67817;DHT22;54614;47.576;7.524;2022-11-20T02:50:17;24.80;52.10
67817;DHT22;54614;47.576;7.524;2022-11-20T02:52:43;24.80;52.00
67817;DHT22;54614;47.576;7.524;2022-11-20T02:55:09;24.80;52.10
67817;DHT22;54614;47.576;7.524;2022-11-20T02:57:35;24.80;51.90
67817;DHT22;54614;47.576;7.524;2022-11-20T03:00:02;24.80;52.10
67817;DHT22;54614;47.576;7.524;2022-11-20T03:02:30;24.80;52.00
67817;DHT22;54614;47.576;7.524;2022-11-20T03:04:57;24.80;52.10
67817;DHT22;54614;47.576;7.524;2022-11-20T03:07:22;24.80;52.10
67817;DHT22;54614;47.576;7.524;2022-11-20T03:09:48;24.80;52.00
67817;DHT22;54614;47.576;7.524;2022-11-20T03:12:14;24.80;52.10
67817;DHT22;54614;47.576;7.524;2022-11-20T03:14:40;24.80;52.10
67817;DHT22;54614;47.576;7.524;2022-11-20T03:17:06;24.70;52.10
67817;DHT22;54614;47.576;7.524;2022-11-20T03:19:32;24.70;52.10
67817;DHT22;54614;47.576;7.524;2022-11-20T03:21:59;24.70;52.10
67817;DHT22;54614;47.576;7.524;2022-11-20T03:24:26;24.70;52.20
67817;DHT22;54614;47.576;7.524;2022-11-20T03:26:52;24.70;52.20
67817;DHT22;54614;47.576;7.524;2022-11-20T03:29:18;24.70;52.30
67817;DHT22;54614;47.576;7.524;2022-11-20T03:31:44;24.70;52.20
67817;DHT22;54614;47.576;7.524;2022-11-20T03:34:11;24.70;52.10
67817;DHT22;54614;47.576;7.524;2022-11-20T03:36:39;24.70;52.10
67817;DHT22;54614;47.576;7.524;2022-11-20T03:39:06;24.70;52.20
67817;DHT22;54614;47.576;7.524;2022-11-20T03:41:37;24.70;52.20
67817;DHT22;54614;47.576;7.524;2022-11-20T03:44:06;24.70;52.30
67817;DHT22;54614;47.576;7.524;2022-11-20T03:46:33;24.70;52.20
67817;DHT22;54614;47.576;7.524;2022-11-20T03:48:59;24.70;52.20
67817;DHT22;54614;47.576;7.524;2022-11-20T03:51:33;24.70;52.20
67817;DHT22;54614;47.576;7.524;2022-11-20T03:54:03;24.70;52.20
67817;DHT22;54614;47.576;7.524;2022-11-20T03:56:34;24.70;52.20
67817;DHT22;54614;47.576;7.524;2022-11-20T03:59:03;24.70;52.30
67817;DHT22;54614;47.576;7.524;2022-11-20T04:01:35;24.70;52.30
67817;DHT22;54614;47.576;7.524;2022-11-20T04:04:03;24.70;52.20
67817;DHT22;54614;47.576;7.524;2022-11-20T04:06:35;24.70;52.20
67817;DHT22;54614;47.576;7.524;2022-11-20T04:09:02;24.70;52.10
67817;DHT22;54614;47.576;7.524;2022-11-20T04:11:32;24.70;52.20
67817;DHT22;54614;47.576;7.524;2022-11-20T04:14:01;24.70;52.20
67817;DHT22;54614;47.576;7.524;2022-11-20T04:16:30;24.70;52.20
67817;DHT22;54614;47.576;7.524;2022-11-20T04:19:02;24.60;52.20
67817;DHT22;54614;47.576;7.524;2022-11-20T04:21:30;24.70;52.20
67817;DHT22;54614;47.576;7.524;2022-11-20T04:23:56;24.70;52.10
67817;DHT22;54614;47.576;7.524;2022-11-20T04:26:25;24.70;52.10
67817;DHT22;54614;47.576;7.524;2022-11-20T04:28:52;24.70;52.10
67817;DHT22;54614;47.576;7.524;2022-11-20T04:31:21;24.70;52.10
67817;DHT22;54614;47.576;7.524;2022-11-20T04:33:49;24.60;52.20
67817;DHT22;54614;47.576;7.524;2022-11-20T04:36:24;24.60;52.20
67817;DHT22;54614;47.576;7.524;2022-11-20T04:38:55;24.70;52.10
67817;DHT22;54614;47.576;7.524;2022-11-20T04:41:25;24.60;52.20
67817;DHT22;54614;47.576;7.524;2022-11-20T04:43:55;24.60;52.20
67817;DHT22;54614;47.576;7.524;2022-11-20T04:46:30;24.60;52.20
67817;DHT22;54614;47.576;7.524;2022-11-20T04:48:58;24.60;52.10
67817;DHT22;54614;47.576;7.524;2022-11-20T04:51:24;24.70;52.00
67817;DHT22;54614;47.576;7.524;2022-11-20T04:53:50;24.70;51.90
67817;DHT22;54614;47.576;7.524;2022-11-20T04:56:16;24.70;51.80
67817;DHT22;54614;47.576;7.524;2022-11-20T04:58:43;24.70;52.40
67817;DHT22;54614;47.576;7.524;2022-11-20T05:03:39;24.60;51.90
67817;DHT22;54614;47.576;7.524;2022-11-20T05:06:07;24.50;51.80
67817;DHT22;54614;47.576;7.524;2022-11-20T05:08:33;24.50;51.70
67817;DHT22;54614;47.576;7.524;2022-11-20T05:11:01;24.50;52.30
67817;DHT22;54614;47.576;7.524;2022-11-20T05:13:29;24.50;51.90
67817;DHT22;54614;47.576;7.524;2022-11-20T05:15:54;24.40;52.10
67817;DHT22;54614;47.576;7.524;2022-11-20T05:18:21;24.40;52.00
67817;DHT22;54614;47.576;7.524;2022-11-20T05:20:46;24.40;53.00
67817;DHT22;54614;47.576;7.524;2022-11-20T05:23:12;24.40;52.00
67817;DHT22;54614;47.576;7.524;2022-11-20T05:25:38;24.50;51.80
67817;DHT22;54614;47.576;7.524;2022-11-20T05:28:04;24.50;51.80
67817;DHT22;54614;47.576;7.524;2022-11-20T05:30:29;24.50;51.80
67817;DHT22;54614;47.576;7.524;2022-11-20T05:32:55;24.50;51.80
67817;DHT22;54614;47.576;7.524;2022-11-20T05:35:21;24.50;51.70
67817;DHT22;54614;47.576;7.524;2022-11-20T05:37:47;24.50;51.80
67817;DHT22;54614;47.576;7.524;2022-11-20T05:40:13;24.50;51.80
67817;DHT22;54614;47.576;7.524;2022-11-20T05:42:39;24.50;51.80
67817;DHT22;54614;47.576;7.524;2022-11-20T05:45:05;24.50;51.70
67817;DHT22;54614;47.576;7.524;2022-11-20T05:47:32;24.50;51.80
67817;DHT22;54614;47.576;7.524;2022-11-20T05:49:59;24.50;51.80
67817;DHT22;54614;47.576;7.524;2022-11-20T05:52:28;24.50;51.80
67817;DHT22;54614;47.576;7.524;2022-11-20T05:54:55;24.60;51.90
67817;DHT22;54614;47.576;7.524;2022-11-20T05:57:21;24.50;51.90
67817;DHT22;54614;47.576;7.524;2022-11-20T05:59:47;24.50;51.80
67817;DHT22;54614;47.576;7.524;2022-11-20T06:02:12;24.50;51.80
67817;DHT22;54614;47.576;7.524;2022-11-20T06:04:38;24.50;52.00
67817;DHT22;54614;47.576;7.524;2022-11-20T06:07:07;24.50;51.90
67817;DHT22;54614;47.576;7.524;2022-11-20T06:09:33;24.50;52.20
67817;DHT22;54614;47.576;7.524;2022-11-20T06:11:59;24.40;52.20
67817;DHT22;54614;47.576;7.524;2022-11-20T06:14:25;24.50;52.10
67817;DHT22;54614;47.576;7.524;2022-11-20T06:16:51;24.50;52.00
67817;DHT22;54614;47.576;7.524;2022-11-20T06:19:16;24.50;52.00
67817;DHT22;54614;47.576;7.524;2022-11-20T06:21:42;24.50;51.90
67817;DHT22;54614;47.576;7.524;2022-11-20T06:24:11;24.50;51.80
67817;DHT22;54614;47.576;7.524;2022-11-20T06:26:37;24.50;51.90
67817;DHT22;54614;47.576;7.524;2022-11-20T06:29:03;24.50;52.00
67817;DHT22;54614;47.576;7.524;2022-11-20T06:31:29;24.50;51.90
67817;DHT22;54614;47.576;7.524;2022-11-20T06:33:55;24.40;52.20
67817;DHT22;54614;47.576;7.524;2022-11-20T06:36:22;24.40;52.30
67817;DHT22;54614;47.576;7.524;2022-11-20T06:38:48;24.40;52.30
67817;DHT22;54614;47.576;7.524;2022-11-20T06:41:19;24.40;52.30
67817;DHT22;54614;47.576;7.524;2022-11-20T06:43:46;24.40;52.20
67817;DHT22;54614;47.576;7.524;2022-11-20T06:46:13;24.40;52.20
67817;DHT22;54614;47.576;7.524;2022-11-20T06:48:40;24.30;52.60
67817;DHT22;54614;47.576;7.524;2022-11-20T06:51:07;24.30;52.70
67817;DHT22;54614;47.576;7.524;2022-11-20T06:53:34;24.20;52.90
67817;DHT22;54614;47.576;7.524;2022-11-20T06:56:00;24.20;54.90
67817;DHT22;54614;47.576;7.524;2022-11-20T06:58:28;24.10;53.40
67817;DHT22;54614;47.576;7.524;2022-11-20T07:01:03;24.20;53.50
67817;DHT22;54614;47.576;7.524;2022-11-20T07:03:31;24.20;53.60
67817;DHT22;54614;47.576;7.524;2022-11-20T07:05:58;24.30;53.90
67817;DHT22;54614;47.576;7.524;2022-11-20T07:08:26;24.20;54.10
67817;DHT22;54614;47.576;7.524;2022-11-20T07:10:52;24.30;54.10
67817;DHT22;54614;47.576;7.524;2022-11-20T07:13:18;24.30;54.10
67817;DHT22;54614;47.576;7.524;2022-11-20T07:15:43;24.30;54.50
67817;DHT22;54614;47.576;7.524;2022-11-20T07:18:09;24.40;54.30
67817;DHT22;54614;47.576;7.524;2022-11-20T07:20:35;24.40;54.40
67817;DHT22;54614;47.576;7.524;2022-11-20T07:23:01;24.40;54.60
67817;DHT22;54614;47.576;7.524;2022-11-20T07:25:27;24.40;54.30
67817;DHT22;54614;47.576;7.524;2022-11-20T07:28:00;24.50;54.50
67817;DHT22;54614;47.576;7.524;2022-11-20T07:30:27;24.50;54.30
67817;DHT22;54614;47.576;7.524;2022-11-20T07:32:54;24.50;54.80
67817;DHT22;54614;47.576;7.524;2022-11-20T07:35:22;24.40;54.70
67817;DHT22;54614;47.576;7.524;2022-11-20T07:37:49;24.40;54.90
67817;DHT22;54614;47.576;7.524;2022-11-20T07:40:15;24.50;54.80
67817;DHT22;54614;47.576;7.524;2022-11-20T07:42:49;24.50;54.60
67817;DHT22;54614;47.576;7.524;2022-11-20T07:45:21;24.50;54.60
67817;DHT22;54614;47.576;7.524;2022-11-20T07:47:49;24.50;54.70
67817;DHT22;54614;47.576;7.524;2022-11-20T07:50:16;24.50;54.60
67817;DHT22;54614;47.576;7.524;2022-11-20T07:52:43;24.50;55.30
67817;DHT22;54614;47.576;7.524;2022-11-20T07:55:10;24.50;54.50
67817;DHT22;54614;47.576;7.524;2022-11-20T07:57:36;24.50;54.40
67817;DHT22;54614;47.576;7.524;2022-11-20T08:00:04;24.50;54.30
67817;DHT22;54614;47.576;7.524;2022-11-20T08:02:31;24.50;54.10
67817;DHT22;54614;47.576;7.524;2022-11-20T08:04:57;24.60;54.20
67817;DHT22;54614;47.576;7.524;2022-11-20T08:07:22;24.60;53.40
67817;DHT22;54614;47.576;7.524;2022-11-20T08:09:48;24.50;54.70
67817;DHT22;54614;47.576;7.524;2022-11-20T08:12:18;24.50;54.50
67817;DHT22;54614;47.576;7.524;2022-11-20T08:15:05;24.50;54.40
67817;DHT22;54614;47.576;7.524;2022-11-20T08:17:31;24.50;54.30
67817;DHT22;54614;47.576;7.524;2022-11-20T08:19:57;24.50;53.70
67817;DHT22;54614;47.576;7.524;2022-11-20T08:22:23;24.50;54.50
67817;DHT22;54614;47.576;7.524;2022-11-20T08:24:50;24.50;53.70
67817;DHT22;54614;47.576;7.524;2022-11-20T08:27:16;24.50;54.30
67817;DHT22;54614;47.576;7.524;2022-11-20T08:29:42;24.50;54.00
67817;DHT22;54614;47.576;7.524;2022-11-20T08:32:07;24.50;54.00
67817;DHT22;54614;47.576;7.524;2022-11-20T08:34:33;24.50;54.10
67817;DHT22;54614;47.576;7.524;2022-11-20T08:36:59;24.60;54.50
67817;DHT22;54614;47.576;7.524;2022-11-20T08:39:27;24.70;54.40
67817;DHT22;54614;47.576;7.524;2022-11-20T08:41:53;24.70;54.30
67817;DHT22;54614;47.576;7.524;2022-11-20T08:44:19;24.80;54.20
67817;DHT22;54614;47.576;7.524;2022-11-20T08:46:45;24.80;54.10
67817;DHT22;54614;47.576;7.524;2022-11-20T08:49:13;24.80;54.00
67817;DHT22;54614;47.576;7.524;2022-11-20T08:51:40;24.80;53.80
67817;DHT22;54614;47.576;7.524;2022-11-20T08:54:07;24.80;54.10
67817;DHT22;54614;47.576;7.524;2022-11-20T08:56:34;24.90;53.90
67817;DHT22;54614;47.576;7.524;2022-11-20T08:59:00;24.90;53.80
67817;DHT22;54614;47.576;7.524;2022-11-20T09:01:27;24.90;54.40
67817;DHT22;54614;47.576;7.524;2022-11-20T09:03:57;24.90;53.90
67817;DHT22;54614;47.576;7.524;2022-11-20T09:06:25;24.90;53.70
67817;DHT22;54614;47.576;7.524;2022-11-20T09:08:54;24.90;53.80
67817;DHT22;54614;47.576;7.524;2022-11-20T09:11:21;25.00;53.30
67817;DHT22;54614;47.576;7.524;2022-11-20T09:13:47;25.00;53.20
67817;DHT22;54614;47.576;7.524;2022-11-20T09:16:13;25.00;53.30
67817;DHT22;54614;47.576;7.524;2022-11-20T09:18:38;25.00;53.50
67817;DHT22;54614;47.576;7.524;2022-11-20T09:21:06;25.10;53.90
67817;DHT22;54614;47.576;7.524;2022-11-20T09:23:37;25.00;53.30
67817;DHT22;54614;47.576;7.524;2022-11-20T09:26:05;25.00;53.40
67817;DHT22;54614;47.576;7.524;2022-11-20T09:28:34;25.00;53.70
67817;DHT22;54614;47.576;7.524;2022-11-20T09:30:59;25.00;54.70
67817;DHT22;54614;47.576;7.524;2022-11-20T09:33:26;25.00;53.60
67817;DHT22;54614;47.576;7.524;2022-11-20T09:35:52;25.00;53.60
67817;DHT22;54614;47.576;7.524;2022-11-20T09:38:18;25.00;53.50
67817;DHT22;54614;47.576;7.524;2022-11-20T09:40:49;25.10;53.30
67817;DHT22;54614;47.576;7.524;2022-11-20T09:46:55;25.10;53.20
67817;DHT22;54614;47.576;7.524;2022-11-20T09:49:56;25.00;53.40
67817;DHT22;54614;47.576;7.524;2022-11-20T09:52:41;25.00;53.80
67817;DHT22;54614;47.576;7.524;2022-11-20T09:55:13;25.00;53.60
67817;DHT22;54614;47.576;7.524;2022-11-20T09:57:44;25.00;54.50
67817;DHT22;54614;47.576;7.524;2022-11-20T10:00:14;25.00;54.10
67817;DHT22;54614;47.576;7.524;2022-11-20T10:06:01;25.20;55.50
67817;DHT22;54614;47.576;7.524;2022-11-20T10:08:41;25.30;54.80
67817;DHT22;54614;47.576;7.524;2022-11-20T10:14:50;25.50;53.70
67817;DHT22;54614;47.576;7.524;2022-11-20T10:17:44;25.50;53.20
67817;DHT22;54614;47.576;7.524;2022-11-20T10:20:46;25.60;53.00
67817;DHT22;54614;47.576;7.524;2022-11-20T10:23:37;25.50;52.40
67817;DHT22;54614;47.576;7.524;2022-11-20T10:26:25;25.50;52.20
67817;DHT22;54614;47.576;7.524;2022-11-20T10:29:19;25.50;51.70
67817;DHT22;54614;47.576;7.524;2022-11-20T10:32:03;25.40;51.80
67817;DHT22;54614;47.576;7.524;2022-11-20T10:34:50;25.40;51.50
67817;DHT22;54614;47.576;7.524;2022-11-20T10:37:26;25.10;51.50
67817;DHT22;54614;47.576;7.524;2022-11-20T10:40:18;25.00;51.50
67817;DHT22;54614;47.576;7.524;2022-11-20T10:46:02;25.10;52.30
67817;DHT22;54614;47.576;7.524;2022-11-20T10:48:32;25.30;52.40
67817;DHT22;54614;47.576;7.524;2022-11-20T10:51:34;25.30;52.10
67817;DHT22;54614;47.576;7.524;2022-11-20T10:57:15;25.30;51.90
67817;DHT22;54614;47.576;7.524;2022-11-20T11:05:43;25.40;51.50
67817;DHT22;54614;47.576;7.524;2022-11-20T11:08:16;25.40;51.30
67817;DHT22;54614;47.576;7.524;2022-11-20T11:10:48;25.40;51.10
67817;DHT22;54614;47.576;7.524;2022-11-20T11:13:28;25.40;51.00
67817;DHT22;54614;47.576;7.524;2022-11-20T11:15:56;25.40;51.30
67817;DHT22;54614;47.576;7.524;2022-11-20T11:18:28;25.40;51.10
67817;DHT22;54614;47.576;7.524;2022-11-20T11:21:02;25.40;51.00
67817;DHT22;54614;47.576;7.524;2022-11-20T11:23:43;25.30;51.20
67817;DHT22;54614;47.576;7.524;2022-11-20T11:26:22;25.30;50.30
67817;DHT22;54614;47.576;7.524;2022-11-20T11:29:16;25.20;51.50
67817;DHT22;54614;47.576;7.524;2022-11-20T11:32:07;25.30;51.80
67817;DHT22;54614;47.576;7.524;2022-11-20T11:35:00;25.30;52.50
67817;DHT22;54614;47.576;7.524;2022-11-20T11:37:48;25.40;52.10
67817;DHT22;54614;47.576;7.524;2022-11-20T11:40:22;25.50;51.80
67817;DHT22;54614;47.576;7.524;2022-11-20T11:43:22;25.80;51.70
67817;DHT22;54614;47.576;7.524;2022-11-20T11:46:27;25.70;50.90
67817;DHT22;54614;47.576;7.524;2022-11-20T11:57:51;26.10;50.90
67817;DHT22;54614;47.576;7.524;2022-11-20T12:00:56;26.10;51.30
67817;DHT22;54614;47.576;7.524;2022-11-20T12:03:34;26.00;51.90
67817;DHT22;54614;47.576;7.524;2022-11-20T12:06:08;25.90;51.80
67817;DHT22;54614;47.576;7.524;2022-11-20T12:08:49;26.00;51.70
67817;DHT22;54614;47.576;7.524;2022-11-20T12:11:45;26.00;51.50
67817;DHT22;54614;47.576;7.524;2022-11-20T12:14:48;26.10;51.50
67817;DHT22;54614;47.576;7.524;2022-11-20T12:17:16;26.10;51.30
67817;DHT22;54614;47.576;7.524;2022-11-20T12:19:43;26.20;51.40
67817;DHT22;54614;47.576;7.524;2022-11-20T12:22:31;26.20;51.30
67817;DHT22;54614;47.576;7.524;2022-11-20T12:25:14;26.20;51.20
67817;DHT22;54614;47.576;7.524;2022-11-20T12:28:18;26.20;50.90
67817;DHT22;54614;47.576;7.524;2022-11-20T12:40:52;26.60;50.70
67817;DHT22;54614;47.576;7.524;2022-11-20T12:56:50;26.00;51.90
67817;DHT22;54614;47.576;7.524;2022-11-20T13:00:13;25.90;51.80
67817;DHT22;54614;47.576;7.524;2022-11-20T13:06:10;25.90;52.10
67817;DHT22;54614;47.576;7.524;2022-11-20T13:08:41;25.70;52.20
67817;DHT22;54614;47.576;7.524;2022-11-20T13:14:11;25.80;52.60
67817;DHT22;54614;47.576;7.524;2022-11-20T13:19:57;25.90;52.30
67817;DHT22;54614;47.576;7.524;2022-11-20T13:22:28;26.00;52.10
67817;DHT22;54614;47.576;7.524;2022-11-20T13:25:22;25.90;52.10
67817;DHT22;54614;47.576;7.524;2022-11-20T13:27:59;25.70;52.60
67817;DHT22;54614;47.576;7.524;2022-11-20T13:30:30;25.70;52.60
67817;DHT22;54614;47.576;7.524;2022-11-20T13:33:06;25.70;52.50
67817;DHT22;54614;47.576;7.524;2022-11-20T13:35:42;25.70;52.20
67817;DHT22;54614;47.576;7.524;2022-11-20T13:38:13;25.90;52.00
67817;DHT22;54614;47.576;7.524;2022-11-20T13:41:01;26.10;51.50
67817;DHT22;54614;47.576;7.524;2022-11-20T13:43:51;25.90;51.70
67817;DHT22;54614;47.576;7.524;2022-11-20T13:46:40;25.90;51.90
67817;DHT22;54614;47.576;7.524;2022-11-20T13:49:32;25.80;52.10
67817;DHT22;54614;47.576;7.524;2022-11-20T13:52:37;25.90;52.10
67817;DHT22;54614;47.576;7.524;2022-11-20T14:01:10;26.10;51.50
67817;DHT22;54614;47.576;7.524;2022-11-20T14:03:40;26.10;51.40
67817;DHT22;54614;47.576;7.524;2022-11-20T14:06:14;26.10;51.10
67817;DHT22;54614;47.576;7.524;2022-11-20T14:08:48;26.10;51.40
67817;DHT22;54614;47.576;7.524;2022-11-20T14:14:17;26.10;51.10
67817;DHT22;54614;47.576;7.524;2022-11-20T14:16:49;26.10;51.10
67817;DHT22;54614;47.576;7.524;2022-11-20T14:22:22;26.00;51.00
67817;DHT22;54614;47.576;7.524;2022-11-20T14:27:43;26.00;51.00
67817;DHT22;54614;47.576;7.524;2022-11-20T14:30:14;25.90;50.80
67817;DHT22;54614;47.576;7.524;2022-11-20T14:32:41;25.90;51.00
67817;DHT22;54614;47.576;7.524;2022-11-20T14:35:13;25.90;51.10
67817;DHT22;54614;47.576;7.524;2022-11-20T14:37:44;25.80;51.10
67817;DHT22;54614;47.576;7.524;2022-11-20T14:40:31;25.70;51.20
67817;DHT22;54614;47.576;7.524;2022-11-20T14:43:01;25.30;51.00
67817;DHT22;54614;47.576;7.524;2022-11-20T14:45:41;25.70;51.20
67817;DHT22;54614;47.576;7.524;2022-11-20T14:48:09;25.70;51.10
67817;DHT22;54614;47.576;7.524;2022-11-20T14:50:38;25.70;51.20
67817;DHT22;54614;47.576;7.524;2022-11-20T14:53:05;25.70;51.10
67817;DHT22;54614;47.576;7.524;2022-11-20T14:55:36;25.60;51.20
67817;DHT22;54614;47.576;7.524;2022-11-20T14:58:05;25.60;51.20
67817;DHT22;54614;47.576;7.524;2022-11-20T15:00:57;25.60;51.10
67817;DHT22;54614;47.576;7.524;2022-11-20T15:03:37;25.50;51.30
67817;DHT22;54614;47.576;7.524;2022-11-20T15:06:06;25.50;51.20
67817;DHT22;54614;47.576;7.524;2022-11-20T15:08:34;25.50;51.40
67817;DHT22;54614;47.576;7.524;2022-11-20T15:11:02;25.40;51.30
67817;DHT22;54614;47.576;7.524;2022-11-20T15:13:41;25.40;51.30
67817;DHT22;54614;47.576;7.524;2022-11-20T15:16:21;25.40;51.40
67817;DHT22;54614;47.576;7.524;2022-11-20T15:18:49;25.40;51.50
67817;DHT22;54614;47.576;7.524;2022-11-20T15:21:17;25.40;51.40
67817;DHT22;54614;47.576;7.524;2022-11-20T15:23:45;25.30;51.50
67817;DHT22;54614;47.576;7.524;2022-11-20T15:26:13;25.20;51.90
67817;DHT22;54614;47.576;7.524;2022-11-20T15:28:46;25.20;52.00
67817;DHT22;54614;47.576;7.524;2022-11-20T15:31:17;25.10;52.10
67817;DHT22;54614;47.576;7.524;2022-11-20T15:33:45;25.10;52.20
67817;DHT22;54614;47.576;7.524;2022-11-20T15:36:12;25.10;52.10
67817;DHT22;54614;47.576;7.524;2022-11-20T15:38:38;25.20;52.00
67817;DHT22;54614;47.576;7.524;2022-11-20T15:41:04;25.20;52.00
67817;DHT22;54614;47.576;7.524;2022-11-20T15:43:30;25.30;51.90
67817;DHT22;54614;47.576;7.524;2022-11-20T15:46:00;25.30;51.80
67817;DHT22;54614;47.576;7.524;2022-11-20T15:48:31;25.30;51.80
67817;DHT22;54614;47.576;7.524;2022-11-20T15:51:11;25.30;51.70
67817;DHT22;54614;47.576;7.524;2022-11-20T15:54:00;25.40;51.60
67817;DHT22;54614;47.576;7.524;2022-11-20T15:56:29;25.50;51.20
67817;DHT22;54614;47.576;7.524;2022-11-20T15:58:54;25.40;51.60
67817;DHT22;54614;47.576;7.524;2022-11-20T16:01:23;25.40;51.60
67817;DHT22;54614;47.576;7.524;2022-11-20T16:03:49;25.60;51.40
67817;DHT22;54614;47.576;7.524;2022-11-20T16:06:15;25.60;51.30
67817;DHT22;54614;47.576;7.524;2022-11-20T16:08:41;25.60;51.10
67817;DHT22;54614;47.576;7.524;2022-11-20T16:11:12;25.50;51.00
67817;DHT22;54614;47.576;7.524;2022-11-20T16:13:39;25.40;51.30
67817;DHT22;54614;47.576;7.524;2022-11-20T16:16:27;25.40;51.20
67817;DHT22;54614;47.576;7.524;2022-11-20T16:18:56;25.20;51.10
67817;DHT22;54614;47.576;7.524;2022-11-20T16:21:23;25.10;50.90
67817;DHT22;54614;47.576;7.524;2022-11-20T16:24:04;25.20;51.20
67817;DHT22;54614;47.576;7.524;2022-11-20T16:26:31;25.30;51.30
67817;DHT22;54614;47.576;7.524;2022-11-20T16:29:02;25.30;51.70
67817;DHT22;54614;47.576;7.524;2022-11-20T16:31:29;25.50;51.10
67817;DHT22;54614;47.576;7.524;2022-11-20T16:34:00;25.50;51.00
67817;DHT22;54614;47.576;7.524;2022-11-20T16:36:28;25.50;51.30
67817;DHT22;54614;47.576;7.524;2022-11-20T16:39:00;25.50;51.20
67817;DHT22;54614;47.576;7.524;2022-11-20T16:41:30;25.50;51.20
67817;DHT22;54614;47.576;7.524;2022-11-20T16:43:59;25.40;51.30
67817;DHT22;54614;47.576;7.524;2022-11-20T16:46:29;25.50;51.20
67817;DHT22;54614;47.576;7.524;2022-11-20T16:49:04;25.60;51.30
67817;DHT22;54614;47.576;7.524;2022-11-20T16:51:35;25.70;51.00
67817;DHT22;54614;47.576;7.524;2022-11-20T16:56:30;25.60;50.60
67817;DHT22;54614;47.576;7.524;2022-11-20T16:58:58;25.50;51.30
67817;DHT22;54614;47.576;7.524;2022-11-20T17:01:26;25.40;51.70
67817;DHT22;54614;47.576;7.524;2022-11-20T17:03:58;25.40;51.80
67817;DHT22;54614;47.576;7.524;2022-11-20T17:06:27;25.30;51.90
67817;DHT22;54614;47.576;7.524;2022-11-20T17:08:55;25.30;52.00
67817;DHT22;54614;47.576;7.524;2022-11-20T17:11:23;25.30;51.90
67817;DHT22;54614;47.576;7.524;2022-11-20T17:13:49;25.50;51.60
67817;DHT22;54614;47.576;7.524;2022-11-20T17:16:18;25.70;51.30
67817;DHT22;54614;47.576;7.524;2022-11-20T17:18:45;25.90;51.10
67817;DHT22;54614;47.576;7.524;2022-11-20T17:21:12;25.90;51.10
67817;DHT22;54614;47.576;7.524;2022-11-20T17:23:40;25.80;51.20